sensor_id;sensor_type;location;lat;lon;timestamp;temperature;humidity
68691;DHT22;55675;49.588;8.640;2022-11-15T00:01:46;14.00;84.60
68691;DHT22;55675;49.588;8.640;2022-11-15T00:04:12;14.00;83.70
68691;DHT22;55675;49.588;8.640;2022-11-15T00:06:37;14.00;83.70
68691;DHT22;55675;49.588;8.640;2022-11-15T00:09:03;14.10;83.50
68691;DHT22;55675;49.588;8.640;2022-11-15T00:11:29;14.10;83.70
68691;DHT22;55675;49.588;8.640;2022-11-15T00:13:55;14.10;83.80
68691;DHT22;55675;49.588;8.640;2022-11-15T00:16:21;14.10;83.70
68691;DHT22;55675;49.588;8.640;2022-11-15T00:18:47;14.10;83.50
68691;DHT22;55675;49.588;8.640;2022-11-15T00:21:13;14.10;83.80
68691;DHT22;55675;49.588;8.640;2022-11-15T00:23:39;14.10;84.10
68691;DHT22;55675;49.588;8.640;2022-11-15T00:26:05;14.10;84.10
68691;DHT22;55675;49.588;8.640;2022-11-15T00:28:31;14.00;84.00
68691;DHT22;55675;49.588;8.640;2022-11-15T00:31:05;14.10;83.70
68691;DHT22;55675;49.588;8.640;2022-11-15T00:33:31;14.10;83.60
68691;DHT22;55675;49.588;8.640;2022-11-15T00:36:04;14.00;83.70
68691;DHT22;55675;49.588;8.640;2022-11-15T00:38:34;14.00;84.10
68691;DHT22;55675;49.588;8.640;2022-11-15T00:41:01;13.90;84.20
68691;DHT22;55675;49.588;8.640;2022-11-15T00:43:28;13.90;84.40
68691;DHT22;55675;49.588;8.640;2022-11-15T00:45:53;13.90;84.30
68691;DHT22;55675;49.588;8.640;2022-11-15T00:48:19;14.00;84.20
68691;DHT22;55675;49.588;8.640;2022-11-15T00:50:44;13.90;83.90
68691;DHT22;55675;49.588;8.640;2022-11-15T00:53:10;13.90;84.10
68691;DHT22;55675;49.588;8.640;2022-11-15T00:55:36;13.90;84.20
68691;DHT22;55675;49.588;8.640;2022-11-15T00:58:01;14.00;84.30
68691;DHT22;55675;49.588;8.640;2022-11-15T01:00:27;14.00;84.40
68691;DHT22;55675;49.588;8.640;2022-11-15T01:02:53;14.00;84.60
68691;DHT22;55675;49.588;8.640;2022-11-15T01:05:18;14.00;84.80
68691;DHT22;55675;49.588;8.640;2022-11-15T01:07:44;13.90;84.80
68691;DHT22;55675;49.588;8.640;2022-11-15T01:10:10;13.90;85.00
68691;DHT22;55675;49.588;8.640;2022-11-15T01:12:35;13.90;85.00
68691;DHT22;55675;49.588;8.640;2022-11-15T01:15:01;13.80;85.10
68691;DHT22;55675;49.588;8.640;2022-11-15T01:17:27;13.80;85.30
68691;DHT22;55675;49.588;8.640;2022-11-15T01:19:52;13.80;85.50
68691;DHT22;55675;49.588;8.640;2022-11-15T01:22:18;13.80;85.70
68691;DHT22;55675;49.588;8.640;2022-11-15T01:24:44;13.80;85.90
68691;DHT22;55675;49.588;8.640;2022-11-15T01:27:09;13.80;86.10
68691;DHT22;55675;49.588;8.640;2022-11-15T01:29:35;13.70;86.20
68691;DHT22;55675;49.588;8.640;2022-11-15T01:32:01;13.70;86.20
68691;DHT22;55675;49.588;8.640;2022-11-15T01:34:26;13.80;86.00
68691;DHT22;55675;49.588;8.640;2022-11-15T01:36:52;13.80;85.50
68691;DHT22;55675;49.588;8.640;2022-11-15T01:39:17;13.90;85.30
68691;DHT22;55675;49.588;8.640;2022-11-15T01:41:43;14.00;84.90
68691;DHT22;55675;49.588;8.640;2022-11-15T01:44:47;14.00;84.30
68691;DHT22;55675;49.588;8.640;2022-11-15T01:47:20;14.10;83.90
68691;DHT22;55675;49.588;8.640;2022-11-15T01:49:57;14.20;83.20
68691;DHT22;55675;49.588;8.640;2022-11-15T01:52:26;14.20;82.90
68691;DHT22;55675;49.588;8.640;2022-11-15T01:55:11;14.30;82.30
68691;DHT22;55675;49.588;8.640;2022-11-15T01:57:40;14.40;82.00
68691;DHT22;55675;49.588;8.640;2022-11-15T02:00:07;14.50;81.70
68691;DHT22;55675;49.588;8.640;2022-11-15T02:02:34;14.50;81.10
68691;DHT22;55675;49.588;8.640;2022-11-15T02:05:01;14.60;80.50
68691;DHT22;55675;49.588;8.640;2022-11-15T02:07:28;14.60;80.60
68691;DHT22;55675;49.588;8.640;2022-11-15T02:09:55;14.50;80.60
68691;DHT22;55675;49.588;8.640;2022-11-15T02:12:21;14.50;80.60
68691;DHT22;55675;49.588;8.640;2022-11-15T02:14:51;14.40;80.40
68691;DHT22;55675;49.588;8.640;2022-11-15T02:20:14;14.20;80.50
68691;DHT22;55675;49.588;8.640;2022-11-15T02:23:09;14.20;81.20
68691;DHT22;55675;49.588;8.640;2022-11-15T02:28:44;13.90;81.70
68691;DHT22;55675;49.588;8.640;2022-11-15T02:36:44;13.60;82.30
68691;DHT22;55675;49.588;8.640;2022-11-15T02:39:32;13.50;82.50
68691;DHT22;55675;49.588;8.640;2022-11-15T02:42:19;13.40;82.80
68691;DHT22;55675;49.588;8.640;2022-11-15T02:45:07;13.40;83.20
68691;DHT22;55675;49.588;8.640;2022-11-15T02:47:43;13.30;83.20
68691;DHT22;55675;49.588;8.640;2022-11-15T02:50:12;13.30;83.50
68691;DHT22;55675;49.588;8.640;2022-11-15T02:52:38;13.20;83.80
68691;DHT22;55675;49.588;8.640;2022-11-15T02:55:04;13.10;83.90
68691;DHT22;55675;49.588;8.640;2022-11-15T02:57:43;13.10;84.00
68691;DHT22;55675;49.588;8.640;2022-11-15T03:00:14;13.10;84.10
68691;DHT22;55675;49.588;8.640;2022-11-15T03:10:49;13.20;84.50
68691;DHT22;55675;49.588;8.640;2022-11-15T03:16:30;13.10;84.80
68691;DHT22;55675;49.588;8.640;2022-11-15T03:19:11;13.10;85.00
68691;DHT22;55675;49.588;8.640;2022-11-15T03:21:39;13.10;85.30
68691;DHT22;55675;49.588;8.640;2022-11-15T03:24:08;13.10;85.50
68691;DHT22;55675;49.588;8.640;2022-11-15T03:26:35;13.10;85.70
68691;DHT22;55675;49.588;8.640;2022-11-15T03:29:14;13.20;85.60
68691;DHT22;55675;49.588;8.640;2022-11-15T03:31:47;13.20;85.90
68691;DHT22;55675;49.588;8.640;2022-11-15T03:37:08;13.30;85.90
68691;DHT22;55675;49.588;8.640;2022-11-15T03:39:35;13.40;86.00
68691;DHT22;55675;49.588;8.640;2022-11-15T03:42:10;13.40;86.00
68691;DHT22;55675;49.588;8.640;2022-11-15T03:47:58;13.40;86.00
68691;DHT22;55675;49.588;8.640;2022-11-15T03:50:25;13.50;86.30
68691;DHT22;55675;49.588;8.640;2022-11-15T03:52:51;13.50;86.50
68691;DHT22;55675;49.588;8.640;2022-11-15T03:55:20;13.50;86.50
68691;DHT22;55675;49.588;8.640;2022-11-15T03:57:48;13.50;86.50
68691;DHT22;55675;49.588;8.640;2022-11-15T04:00:14;13.60;86.40
68691;DHT22;55675;49.588;8.640;2022-11-15T04:02:40;13.60;86.50
68691;DHT22;55675;49.588;8.640;2022-11-15T04:05:06;13.60;86.30
68691;DHT22;55675;49.588;8.640;2022-11-15T04:07:31;13.60;86.00
68691;DHT22;55675;49.588;8.640;2022-11-15T04:09:57;13.70;85.80
68691;DHT22;55675;49.588;8.640;2022-11-15T04:12:34;13.70;85.90
68691;DHT22;55675;49.588;8.640;2022-11-15T04:15:03;13.70;86.00
68691;DHT22;55675;49.588;8.640;2022-11-15T04:17:32;13.70;86.10
68691;DHT22;55675;49.588;8.640;2022-11-15T04:19:58;13.70;86.20
68691;DHT22;55675;49.588;8.640;2022-11-15T04:22:41;13.70;86.10
68691;DHT22;55675;49.588;8.640;2022-11-15T04:25:26;13.70;85.90
68691;DHT22;55675;49.588;8.640;2022-11-15T04:27:51;13.70;86.10
68691;DHT22;55675;49.588;8.640;2022-11-15T04:30:17;13.70;86.30
68691;DHT22;55675;49.588;8.640;2022-11-15T04:32:42;13.80;86.20
68691;DHT22;55675;49.588;8.640;2022-11-15T04:35:08;13.80;86.60
68691;DHT22;55675;49.588;8.640;2022-11-15T04:37:34;13.80;86.60
68691;DHT22;55675;49.588;8.640;2022-11-15T04:39:59;13.80;86.70
68691;DHT22;55675;49.588;8.640;2022-11-15T04:42:25;13.80;86.30
68691;DHT22;55675;49.588;8.640;2022-11-15T04:44:51;13.80;85.90
68691;DHT22;55675;49.588;8.640;2022-11-15T04:47:16;13.80;85.60
68691;DHT22;55675;49.588;8.640;2022-11-15T04:49:42;13.80;85.80
68691;DHT22;55675;49.588;8.640;2022-11-15T04:52:09;13.80;85.60
68691;DHT22;55675;49.588;8.640;2022-11-15T04:54:34;13.90;85.90
68691;DHT22;55675;49.588;8.640;2022-11-15T04:57:00;13.90;86.00
68691;DHT22;55675;49.588;8.640;2022-11-15T04:59:26;13.90;85.70
68691;DHT22;55675;49.588;8.640;2022-11-15T05:01:51;13.90;85.80
68691;DHT22;55675;49.588;8.640;2022-11-15T05:04:16;13.90;85.90
68691;DHT22;55675;49.588;8.640;2022-11-15T05:06:49;13.90;86.10
68691;DHT22;55675;49.588;8.640;2022-11-15T05:09:16;13.80;86.10
68691;DHT22;55675;49.588;8.640;2022-11-15T05:11:42;13.80;86.10
68691;DHT22;55675;49.588;8.640;2022-11-15T05:14:07;13.70;85.60
68691;DHT22;55675;49.588;8.640;2022-11-15T05:16:33;13.70;85.50
68691;DHT22;55675;49.588;8.640;2022-11-15T05:18:58;13.70;85.80
68691;DHT22;55675;49.588;8.640;2022-11-15T05:21:24;13.70;85.90
68691;DHT22;55675;49.588;8.640;2022-11-15T05:23:49;13.70;86.30
68691;DHT22;55675;49.588;8.640;2022-11-15T05:26:16;13.70;86.20
68691;DHT22;55675;49.588;8.640;2022-11-15T05:28:43;13.70;86.60
68691;DHT22;55675;49.588;8.640;2022-11-15T05:31:14;13.60;87.50
68691;DHT22;55675;49.588;8.640;2022-11-15T05:33:40;13.60;87.10
68691;DHT22;55675;49.588;8.640;2022-11-15T05:36:21;13.60;87.80
68691;DHT22;55675;49.588;8.640;2022-11-15T05:38:48;13.50;87.90
68691;DHT22;55675;49.588;8.640;2022-11-15T05:41:16;13.50;88.10
68691;DHT22;55675;49.588;8.640;2022-11-15T05:43:43;13.50;88.10
68691;DHT22;55675;49.588;8.640;2022-11-15T05:46:10;13.50;87.50
68691;DHT22;55675;49.588;8.640;2022-11-15T05:48:38;13.40;87.70
68691;DHT22;55675;49.588;8.640;2022-11-15T05:51:06;13.40;87.90
68691;DHT22;55675;49.588;8.640;2022-11-15T05:53:33;13.30;87.80
68691;DHT22;55675;49.588;8.640;2022-11-15T05:55:59;13.30;88.40
68691;DHT22;55675;49.588;8.640;2022-11-15T05:58:25;13.30;88.20
68691;DHT22;55675;49.588;8.640;2022-11-15T06:00:51;13.30;88.50
68691;DHT22;55675;49.588;8.640;2022-11-15T06:03:16;13.40;88.80
68691;DHT22;55675;49.588;8.640;2022-11-15T06:05:42;13.40;89.20
68691;DHT22;55675;49.588;8.640;2022-11-15T06:08:07;13.40;89.50
68691;DHT22;55675;49.588;8.640;2022-11-15T06:10:33;13.30;89.70
68691;DHT22;55675;49.588;8.640;2022-11-15T06:12:59;13.30;90.00
68691;DHT22;55675;49.588;8.640;2022-11-15T06:15:25;13.20;90.10
68691;DHT22;55675;49.588;8.640;2022-11-15T06:17:51;13.20;90.10
68691;DHT22;55675;49.588;8.640;2022-11-15T06:20:17;13.20;90.20
68691;DHT22;55675;49.588;8.640;2022-11-15T06:22:43;13.10;90.20
68691;DHT22;55675;49.588;8.640;2022-11-15T06:25:08;13.20;90.30
68691;DHT22;55675;49.588;8.640;2022-11-15T06:27:34;13.20;90.40
68691;DHT22;55675;49.588;8.640;2022-11-15T06:29:59;13.20;90.50
68691;DHT22;55675;49.588;8.640;2022-11-15T06:32:25;13.10;90.60
68691;DHT22;55675;49.588;8.640;2022-11-15T06:34:50;13.10;90.70
68691;DHT22;55675;49.588;8.640;2022-11-15T06:37:16;13.10;90.70
68691;DHT22;55675;49.588;8.640;2022-11-15T06:39:42;13.10;90.60
68691;DHT22;55675;49.588;8.640;2022-11-15T06:42:10;13.10;90.50
68691;DHT22;55675;49.588;8.640;2022-11-15T06:44:36;13.10;90.40
68691;DHT22;55675;49.588;8.640;2022-11-15T06:47:01;13.20;90.50
68691;DHT22;55675;49.588;8.640;2022-11-15T06:49:27;13.20;90.40
68691;DHT22;55675;49.588;8.640;2022-11-15T06:51:52;13.20;90.30
68691;DHT22;55675;49.588;8.640;2022-11-15T06:54:18;13.20;90.40
68691;DHT22;55675;49.588;8.640;2022-11-15T06:56:43;13.20;90.50
68691;DHT22;55675;49.588;8.640;2022-11-15T06:59:09;13.20;90.50
68691;DHT22;55675;49.588;8.640;2022-11-15T07:01:34;13.30;90.60
68691;DHT22;55675;49.588;8.640;2022-11-15T07:04:00;13.30;90.70
68691;DHT22;55675;49.588;8.640;2022-11-15T07:06:25;13.30;90.70
68691;DHT22;55675;49.588;8.640;2022-11-15T07:08:51;13.30;90.60
68691;DHT22;55675;49.588;8.640;2022-11-15T07:11:16;13.30;90.80
68691;DHT22;55675;49.588;8.640;2022-11-15T07:13:42;13.40;90.60
68691;DHT22;55675;49.588;8.640;2022-11-15T07:16:09;13.40;90.50
68691;DHT22;55675;49.588;8.640;2022-11-15T07:18:36;13.50;90.40
68691;DHT22;55675;49.588;8.640;2022-11-15T07:21:08;13.50;90.60
68691;DHT22;55675;49.588;8.640;2022-11-15T07:23:36;13.60;90.50
68691;DHT22;55675;49.588;8.640;2022-11-15T07:26:02;13.60;90.30
68691;DHT22;55675;49.588;8.640;2022-11-15T07:28:28;13.70;90.20
68691;DHT22;55675;49.588;8.640;2022-11-15T07:30:54;13.80;90.20
68691;DHT22;55675;49.588;8.640;2022-11-15T07:33:20;13.80;90.10
68691;DHT22;55675;49.588;8.640;2022-11-15T07:35:45;13.80;90.20
68691;DHT22;55675;49.588;8.640;2022-11-15T07:38:14;13.80;90.40
68691;DHT22;55675;49.588;8.640;2022-11-15T07:40:46;13.80;90.40
68691;DHT22;55675;49.588;8.640;2022-11-15T07:43:12;13.80;90.40
68691;DHT22;55675;49.588;8.640;2022-11-15T07:45:42;13.90;90.50
68691;DHT22;55675;49.588;8.640;2022-11-15T07:48:08;13.90;90.50
68691;DHT22;55675;49.588;8.640;2022-11-15T07:50:33;13.90;90.50
68691;DHT22;55675;49.588;8.640;2022-11-15T07:52:59;14.00;90.40
68691;DHT22;55675;49.588;8.640;2022-11-15T07:55:27;14.10;90.50
68691;DHT22;55675;49.588;8.640;2022-11-15T07:58:03;14.00;90.50
68691;DHT22;55675;49.588;8.640;2022-11-15T08:00:30;14.10;90.50
68691;DHT22;55675;49.588;8.640;2022-11-15T08:03:09;14.20;90.40
68691;DHT22;55675;49.588;8.640;2022-11-15T08:05:36;14.20;90.20
68691;DHT22;55675;49.588;8.640;2022-11-15T08:08:02;14.20;90.10
68691;DHT22;55675;49.588;8.640;2022-11-15T08:10:28;14.20;90.30
68691;DHT22;55675;49.588;8.640;2022-11-15T08:13:05;14.30;90.30
68691;DHT22;55675;49.588;8.640;2022-11-15T08:15:32;14.30;90.30
68691;DHT22;55675;49.588;8.640;2022-11-15T08:18:00;14.30;90.30
68691;DHT22;55675;49.588;8.640;2022-11-15T08:20:27;14.40;90.30
68691;DHT22;55675;49.588;8.640;2022-11-15T08:23:00;14.50;90.30
68691;DHT22;55675;49.588;8.640;2022-11-15T08:25:27;14.50;90.30
68691;DHT22;55675;49.588;8.640;2022-11-15T08:27:54;14.60;90.30
68691;DHT22;55675;49.588;8.640;2022-11-15T08:30:20;14.60;89.90
68691;DHT22;55675;49.588;8.640;2022-11-15T08:32:46;14.70;89.20
68691;DHT22;55675;49.588;8.640;2022-11-15T08:35:12;14.70;88.60
68691;DHT22;55675;49.588;8.640;2022-11-15T08:37:38;14.80;88.30
68691;DHT22;55675;49.588;8.640;2022-11-15T08:40:04;14.90;88.40
68691;DHT22;55675;49.588;8.640;2022-11-15T08:42:30;15.00;88.30
68691;DHT22;55675;49.588;8.640;2022-11-15T08:44:56;15.10;87.80
68691;DHT22;55675;49.588;8.640;2022-11-15T08:47:21;15.20;87.10
68691;DHT22;55675;49.588;8.640;2022-11-15T08:49:47;15.20;86.80
68691;DHT22;55675;49.588;8.640;2022-11-15T08:52:14;15.20;86.70
68691;DHT22;55675;49.588;8.640;2022-11-15T08:54:39;15.20;86.10
68691;DHT22;55675;49.588;8.640;2022-11-15T08:57:05;15.20;85.60
68691;DHT22;55675;49.588;8.640;2022-11-15T08:59:31;15.20;85.70
68691;DHT22;55675;49.588;8.640;2022-11-15T09:01:56;15.30;85.50
68691;DHT22;55675;49.588;8.640;2022-11-15T09:04:22;15.30;86.00
68691;DHT22;55675;49.588;8.640;2022-11-15T09:06:47;15.20;85.70
68691;DHT22;55675;49.588;8.640;2022-11-15T09:09:13;15.30;86.00
68691;DHT22;55675;49.588;8.640;2022-11-15T09:11:38;15.30;85.20
68691;DHT22;55675;49.588;8.640;2022-11-15T09:14:04;15.40;85.90
68691;DHT22;55675;49.588;8.640;2022-11-15T09:16:30;15.40;86.30
68691;DHT22;55675;49.588;8.640;2022-11-15T09:18:56;15.50;86.10
68691;DHT22;55675;49.588;8.640;2022-11-15T09:21:22;15.60;86.10
68691;DHT22;55675;49.588;8.640;2022-11-15T09:23:50;15.70;86.00
68691;DHT22;55675;49.588;8.640;2022-11-15T09:26:17;15.80;85.90
68691;DHT22;55675;49.588;8.640;2022-11-15T09:28:43;15.90;85.60
68691;DHT22;55675;49.588;8.640;2022-11-15T09:31:08;15.90;84.90
68691;DHT22;55675;49.588;8.640;2022-11-15T09:33:35;16.00;85.10
68691;DHT22;55675;49.588;8.640;2022-11-15T09:36:05;16.00;84.70
68691;DHT22;55675;49.588;8.640;2022-11-15T09:38:32;16.10;84.70
68691;DHT22;55675;49.588;8.640;2022-11-15T09:43:55;16.30;84.80
68691;DHT22;55675;49.588;8.640;2022-11-15T09:49:00;16.40;84.90
68691;DHT22;55675;49.588;8.640;2022-11-15T09:51:33;16.60;84.40
68691;DHT22;55675;49.588;8.640;2022-11-15T09:56:34;16.80;82.40
68691;DHT22;55675;49.588;8.640;2022-11-15T10:04:27;16.90;80.00
68691;DHT22;55675;49.588;8.640;2022-11-15T10:07:19;16.90;80.60
68691;DHT22;55675;49.588;8.640;2022-11-15T10:10:20;17.00;79.70
68691;DHT22;55675;49.588;8.640;2022-11-15T10:12:49;17.00;79.50
68691;DHT22;55675;49.588;8.640;2022-11-15T10:15:17;17.00;78.40
68691;DHT22;55675;49.588;8.640;2022-11-15T10:20:28;17.00;79.70
68691;DHT22;55675;49.588;8.640;2022-11-15T10:22:58;17.00;79.20
68691;DHT22;55675;49.588;8.640;2022-11-15T10:25:29;17.00;79.20
68691;DHT22;55675;49.588;8.640;2022-11-15T10:30:42;16.90;78.70
68691;DHT22;55675;49.588;8.640;2022-11-15T10:33:34;16.90;78.70
68691;DHT22;55675;49.588;8.640;2022-11-15T10:38:57;16.90;80.10
68691;DHT22;55675;49.588;8.640;2022-11-15T10:46:33;17.00;78.70
68691;DHT22;55675;49.588;8.640;2022-11-15T10:49:24;17.10;78.50
68691;DHT22;55675;49.588;8.640;2022-11-15T10:52:16;17.10;77.70
68691;DHT22;55675;49.588;8.640;2022-11-15T10:54:51;17.30;78.00
68691;DHT22;55675;49.588;8.640;2022-11-15T10:57:23;17.30;77.50
68691;DHT22;55675;49.588;8.640;2022-11-15T10:59:54;17.40;77.00
68691;DHT22;55675;49.588;8.640;2022-11-15T11:02:30;17.50;76.60
68691;DHT22;55675;49.588;8.640;2022-11-15T11:04:57;17.50;75.30
68691;DHT22;55675;49.588;8.640;2022-11-15T11:07:25;17.60;74.40
68691;DHT22;55675;49.588;8.640;2022-11-15T11:10:02;17.70;74.60
68691;DHT22;55675;49.588;8.640;2022-11-15T11:12:33;17.70;74.40
68691;DHT22;55675;49.588;8.640;2022-11-15T11:15:01;17.80;73.70
68691;DHT22;55675;49.588;8.640;2022-11-15T11:23:15;17.80;72.10
68691;DHT22;55675;49.588;8.640;2022-11-15T11:28:41;17.70;73.00
68691;DHT22;55675;49.588;8.640;2022-11-15T11:34:04;17.90;74.50
68691;DHT22;55675;49.588;8.640;2022-11-15T11:42:13;17.80;72.50
68691;DHT22;55675;49.588;8.640;2022-11-15T11:47:31;18.00;72.10
68691;DHT22;55675;49.588;8.640;2022-11-15T11:50:21;18.00;71.10
68691;DHT22;55675;49.588;8.640;2022-11-15T11:53:37;18.00;70.50
68691;DHT22;55675;49.588;8.640;2022-11-15T11:56:19;17.90;70.60
68691;DHT22;55675;49.588;8.640;2022-11-15T11:58:48;17.90;71.30
68691;DHT22;55675;49.588;8.640;2022-11-15T12:01:42;17.90;71.60
68691;DHT22;55675;49.588;8.640;2022-11-15T12:04:21;18.00;72.50
68691;DHT22;55675;49.588;8.640;2022-11-15T12:06:59;18.10;70.90
68691;DHT22;55675;49.588;8.640;2022-11-15T12:17:32;18.20;70.20
68691;DHT22;55675;49.588;8.640;2022-11-15T12:19:59;18.10;69.70
68691;DHT22;55675;49.588;8.640;2022-11-15T12:25:46;18.00;70.30
68691;DHT22;55675;49.588;8.640;2022-11-15T12:33:57;18.10;71.00
68691;DHT22;55675;49.588;8.640;2022-11-15T12:38:56;18.00;71.10
68691;DHT22;55675;49.588;8.640;2022-11-15T12:41:25;18.00;70.30
68691;DHT22;55675;49.588;8.640;2022-11-15T12:43:51;18.00;70.70
68691;DHT22;55675;49.588;8.640;2022-11-15T12:59:48;17.90;71.60
68691;DHT22;55675;49.588;8.640;2022-11-15T13:04:53;17.70;73.20
68691;DHT22;55675;49.588;8.640;2022-11-15T13:10:45;17.60;74.10
68691;DHT22;55675;49.588;8.640;2022-11-15T13:28:29;17.00;75.30
68691;DHT22;55675;49.588;8.640;2022-11-15T13:33:41;17.10;75.70
68691;DHT22;55675;49.588;8.640;2022-11-15T13:36:20;17.10;76.10
68691;DHT22;55675;49.588;8.640;2022-11-15T13:38:58;17.20;75.80
68691;DHT22;55675;49.588;8.640;2022-11-15T13:41:27;17.20;75.50
68691;DHT22;55675;49.588;8.640;2022-11-15T13:43:54;17.20;75.60
68691;DHT22;55675;49.588;8.640;2022-11-15T13:46:28;17.20;76.10
68691;DHT22;55675;49.588;8.640;2022-11-15T13:54:03;17.20;78.10
68691;DHT22;55675;49.588;8.640;2022-11-15T13:56:32;17.20;78.00
68691;DHT22;55675;49.588;8.640;2022-11-15T13:58:59;17.20;77.50
68691;DHT22;55675;49.588;8.640;2022-11-15T14:01:28;17.20;77.60
68691;DHT22;55675;49.588;8.640;2022-11-15T14:03:58;17.30;76.90
68691;DHT22;55675;49.588;8.640;2022-11-15T14:06:26;17.30;77.30
68691;DHT22;55675;49.588;8.640;2022-11-15T14:11:37;17.30;77.70
68691;DHT22;55675;49.588;8.640;2022-11-15T14:14:12;17.40;77.20
68691;DHT22;55675;49.588;8.640;2022-11-15T14:16:43;17.40;77.40
68691;DHT22;55675;49.588;8.640;2022-11-15T14:19:12;17.50;77.50
68691;DHT22;55675;49.588;8.640;2022-11-15T14:22:08;17.50;77.20
68691;DHT22;55675;49.588;8.640;2022-11-15T14:24:34;17.40;77.60
68691;DHT22;55675;49.588;8.640;2022-11-15T14:27:19;17.40;77.80
68691;DHT22;55675;49.588;8.640;2022-11-15T14:29:46;17.40;78.30
68691;DHT22;55675;49.588;8.640;2022-11-15T14:32:19;17.30;78.40
68691;DHT22;55675;49.588;8.640;2022-11-15T14:34:47;17.20;78.60
68691;DHT22;55675;49.588;8.640;2022-11-15T14:37:20;17.10;78.50
68691;DHT22;55675;49.588;8.640;2022-11-15T14:39:46;17.10;78.50
68691;DHT22;55675;49.588;8.640;2022-11-15T14:42:12;17.00;78.60
68691;DHT22;55675;49.588;8.640;2022-11-15T14:44:37;17.00;79.00
68691;DHT22;55675;49.588;8.640;2022-11-15T14:47:04;16.90;79.10
68691;DHT22;55675;49.588;8.640;2022-11-15T14:49:29;17.00;79.30
68691;DHT22;55675;49.588;8.640;2022-11-15T14:51:55;16.90;79.80
68691;DHT22;55675;49.588;8.640;2022-11-15T14:54:20;16.80;79.70
68691;DHT22;55675;49.588;8.640;2022-11-15T14:56:46;16.80;80.30
68691;DHT22;55675;49.588;8.640;2022-11-15T14:59:11;16.70;80.80
68691;DHT22;55675;49.588;8.640;2022-11-15T15:01:37;16.70;81.40
68691;DHT22;55675;49.588;8.640;2022-11-15T15:04:02;16.70;81.40
68691;DHT22;55675;49.588;8.640;2022-11-15T15:06:28;16.60;81.40
68691;DHT22;55675;49.588;8.640;2022-11-15T15:08:54;16.60;81.90
68691;DHT22;55675;49.588;8.640;2022-11-15T15:11:22;16.50;81.90
68691;DHT22;55675;49.588;8.640;2022-11-15T15:13:49;16.50;82.10
68691;DHT22;55675;49.588;8.640;2022-11-15T15:16:14;16.50;82.00
68691;DHT22;55675;49.588;8.640;2022-11-15T15:18:40;16.40;82.00
68691;DHT22;55675;49.588;8.640;2022-11-15T15:21:22;16.40;81.10
68691;DHT22;55675;49.588;8.640;2022-11-15T15:23:49;16.20;80.30
68691;DHT22;55675;49.588;8.640;2022-11-15T15:26:15;16.10;80.50
68691;DHT22;55675;49.588;8.640;2022-11-15T15:28:40;16.00;80.20
68691;DHT22;55675;49.588;8.640;2022-11-15T15:31:07;15.90;79.90
68691;DHT22;55675;49.588;8.640;2022-11-15T15:33:33;15.90;80.00
68691;DHT22;55675;49.588;8.640;2022-11-15T15:35:58;15.90;79.40
68691;DHT22;55675;49.588;8.640;2022-11-15T15:38:24;15.90;78.80
68691;DHT22;55675;49.588;8.640;2022-11-15T15:40:50;15.90;78.40
68691;DHT22;55675;49.588;8.640;2022-11-15T15:43:15;15.90;77.80
68691;DHT22;55675;49.588;8.640;2022-11-15T15:45:41;15.90;77.70
68691;DHT22;55675;49.588;8.640;2022-11-15T15:48:14;15.90;78.20
68691;DHT22;55675;49.588;8.640;2022-11-15T15:50:40;15.90;77.70
68691;DHT22;55675;49.588;8.640;2022-11-15T15:53:05;15.80;77.20
68691;DHT22;55675;49.588;8.640;2022-11-15T15:55:33;15.80;77.40
68691;DHT22;55675;49.588;8.640;2022-11-15T15:57:58;15.80;78.10
68691;DHT22;55675;49.588;8.640;2022-11-15T16:00:25;15.70;78.70
68691;DHT22;55675;49.588;8.640;2022-11-15T16:02:51;15.70;78.90
68691;DHT22;55675;49.588;8.640;2022-11-15T16:05:17;15.60;79.30
68691;DHT22;55675;49.588;8.640;2022-11-15T16:07:43;15.60;79.60
68691;DHT22;55675;49.588;8.640;2022-11-15T16:10:25;15.60;79.50
68691;DHT22;55675;49.588;8.640;2022-11-15T16:12:51;15.50;79.10
68691;DHT22;55675;49.588;8.640;2022-11-15T16:15:17;15.50;79.40
68691;DHT22;55675;49.588;8.640;2022-11-15T16:17:54;15.60;79.20
68691;DHT22;55675;49.588;8.640;2022-11-15T16:23:02;15.50;78.90
68691;DHT22;55675;49.588;8.640;2022-11-15T16:25:28;15.50;78.00
68691;DHT22;55675;49.588;8.640;2022-11-15T16:27:53;15.40;77.90
68691;DHT22;55675;49.588;8.640;2022-11-15T16:30:21;15.50;77.70
68691;DHT22;55675;49.588;8.640;2022-11-15T16:32:47;15.50;77.20
68691;DHT22;55675;49.588;8.640;2022-11-15T16:35:14;15.50;77.40
68691;DHT22;55675;49.588;8.640;2022-11-15T16:37:40;15.50;76.90
68691;DHT22;55675;49.588;8.640;2022-11-15T16:40:26;15.60;77.20
68691;DHT22;55675;49.588;8.640;2022-11-15T16:42:52;15.60;76.70
68691;DHT22;55675;49.588;8.640;2022-11-15T16:45:18;15.60;76.30
68691;DHT22;55675;49.588;8.640;2022-11-15T16:47:44;15.70;76.60
68691;DHT22;55675;49.588;8.640;2022-11-15T16:50:21;15.70;76.30
68691;DHT22;55675;49.588;8.640;2022-11-15T16:52:54;15.70;76.50
68691;DHT22;55675;49.588;8.640;2022-11-15T16:55:21;15.70;76.60
68691;DHT22;55675;49.588;8.640;2022-11-15T16:57:47;15.70;76.30
68691;DHT22;55675;49.588;8.640;2022-11-15T17:00:13;15.70;76.20
68691;DHT22;55675;49.588;8.640;2022-11-15T17:02:42;15.70;75.90
68691;DHT22;55675;49.588;8.640;2022-11-15T17:05:08;15.70;75.70
68691;DHT22;55675;49.588;8.640;2022-11-15T17:07:33;15.80;75.80
68691;DHT22;55675;49.588;8.640;2022-11-15T17:09:59;15.80;75.50
68691;DHT22;55675;49.588;8.640;2022-11-15T17:12:24;15.80;75.40
68691;DHT22;55675;49.588;8.640;2022-11-15T17:14:50;15.80;75.10
68691;DHT22;55675;49.588;8.640;2022-11-15T17:17:15;15.90;75.10
68691;DHT22;55675;49.588;8.640;2022-11-15T17:19:41;15.90;75.10
68691;DHT22;55675;49.588;8.640;2022-11-15T17:22:07;15.90;74.80
68691;DHT22;55675;49.588;8.640;2022-11-15T17:24:32;15.90;74.90
68691;DHT22;55675;49.588;8.640;2022-11-15T17:26:58;15.90;74.90
68691;DHT22;55675;49.588;8.640;2022-11-15T17:29:23;15.90;75.00
68691;DHT22;55675;49.588;8.640;2022-11-15T17:31:49;15.90;74.90
68691;DHT22;55675;49.588;8.640;2022-11-15T17:34:14;15.90;75.10
68691;DHT22;55675;49.588;8.640;2022-11-15T17:36:40;15.90;75.60
68691;DHT22;55675;49.588;8.640;2022-11-15T17:39:05;15.90;75.80
68691;DHT22;55675;49.588;8.640;2022-11-15T17:41:31;15.90;75.60
68691;DHT22;55675;49.588;8.640;2022-11-15T17:43:57;15.90;75.30
68691;DHT22;55675;49.588;8.640;2022-11-15T17:46:24;15.80;75.00
68691;DHT22;55675;49.588;8.640;2022-11-15T17:48:50;15.80;75.30
68691;DHT22;55675;49.588;8.640;2022-11-15T17:51:17;15.80;75.00
68691;DHT22;55675;49.588;8.640;2022-11-15T17:53:46;15.80;74.90
68691;DHT22;55675;49.588;8.640;2022-11-15T17:56:16;15.80;74.90
68691;DHT22;55675;49.588;8.640;2022-11-15T17:58:47;15.90;74.50
68691;DHT22;55675;49.588;8.640;2022-11-15T18:03:41;15.90;74.60
68691;DHT22;55675;49.588;8.640;2022-11-15T18:06:08;15.90;74.60